Time;durP1;ratioP1;P1;durP2;ratioP2;P2;SDS_P1;SDS_P2;PMS_P1;PMS_P2;Temp;Humidity;BMP_temperature;BMP_pressure;BME280_temperature;BME280_humidity;BME280_pressure;Samples;Min_cycle;Max_cycle;Signal;HPM_P1;HPM_P2
2022/10/19 00:01:02;;;;;;;0.47;0.47;;;11.80;99.90;;;;;;4386510;32;20106;-75
2022/10/19 00:03:27;;;;;;;;;;;11.70;99.90;;;;;;4373980;32;20080;-75
2022/10/19 00:05:53;;;;;;;0.30;0.30;;;11.70;99.90;;;;;;4366725;32;19949;-75
2022/10/19 00:08:18;;;;;;;0.22;0.22;;;11.70;99.90;;;;;;4383150;32;20097;-75
2022/10/19 00:10:44;;;;;;;0.57;0.57;;;11.70;99.90;;;;;;4385184;32;20027;-73
2022/10/19 00:13:09;;;;;;;0.37;0.37;;;11.70;99.90;;;;;;4388461;32;20119;-74
2022/10/19 00:15:43;;;;;;;0.40;0.40;;;11.70;99.90;;;;;;4388292;32;20085;-74
2022/10/19 00:18:09;;;;;;;0.40;0.40;;;11.70;99.90;;;;;;4387056;32;20071;-74
2022/10/19 00:20:35;;;;;;;1.15;0.62;;;11.70;99.90;;;;;;4385695;32;20079;-74
2022/10/19 00:23:01;;;;;;;0.40;0.40;;;11.70;99.90;;;;;;4387560;32;20148;-74
2022/10/19 00:25:26;;;;;;;0.82;0.70;;;11.80;99.90;;;;;;4388297;32;20086;-74
2022/10/19 00:27:52;;;;;;;2.05;1.45;;;11.80;99.90;;;;;;4387185;32;20108;-75
2022/10/19 00:30:17;;;;;;;27.83;0.60;;;11.90;99.90;;;;;;4386621;32;20149;-74
2022/10/19 00:32:43;;;;;;;0.30;0.30;;;11.90;99.90;;;;;;4379749;32;20106;-74
2022/10/19 00:35:08;;;;;;;0.35;0.35;;;11.90;99.90;;;;;;4362306;32;20074;-74
2022/10/19 00:37:34;;;;;;;0.30;0.30;;;11.80;99.90;;;;;;4380327;32;20117;-74
2022/10/19 00:39:59;;;;;;;0.35;0.35;;;11.90;99.90;;;;;;4388803;32;20078;-73
2022/10/19 00:42:25;;;;;;;1.37;0.60;;;11.80;99.90;;;;;;4387298;32;20132;-74
2022/10/19 00:44:57;;;;;;;0.40;0.40;;;11.80;99.90;;;;;;4388223;32;20091;-75
2022/10/19 00:47:23;;;;;;;0.50;0.40;;;11.90;99.90;;;;;;4385084;32;20126;-73
2022/10/19 00:49:49;;;;;;;0.70;0.70;;;11.90;99.90;;;;;;4388337;32;20039;-75
2022/10/19 00:52:18;;;;;;;1.55;1.37;;;11.90;99.90;;;;;;4386742;32;20078;-74
2022/10/19 00:54:45;;;;;;;0.20;0.20;;;11.80;99.90;;;;;;4385485;32;20245;-75
2022/10/19 00:57:12;;;;;;;0.40;0.40;;;11.80;99.90;;;;;;4389341;32;20040;-75
2022/10/19 00:59:39;;;;;;;0.40;0.40;;;11.80;99.90;;;;;;4387423;32;20090;-73
2022/10/19 01:02:06;;;;;;;0.40;0.40;;;11.80;99.90;;;;;;4385867;32;20102;-75
2022/10/19 01:04:35;;;;;;;5.43;0.45;;;11.80;99.90;;;;;;4364125;32;20082;-75
2022/10/19 01:07:03;;;;;;;1.65;1.00;;;11.80;99.90;;;;;;4379600;32;20059;-74
2022/10/19 01:09:28;;;;;;;0.50;0.50;;;11.80;99.90;;;;;;4385841;32;20050;-74
2022/10/19 01:12:21;;;;;;;3.47;0.50;;;11.70;99.90;;;;;;4386194;32;20147;-75
2022/10/19 01:14:54;;;;;;;0.60;0.60;;;11.80;99.90;;;;;;4381321;32;20080;-74
2022/10/19 01:17:37;;;;;;;0.30;0.30;;;11.80;99.90;;;;;;4385365;32;20147;-75
2022/10/19 01:20:43;;;;;;;0.30;0.30;;;11.80;99.90;;;;;;4386919;32;20906;-75
2022/10/19 01:23:30;;;;;;;0.98;0.88;;;11.90;99.90;;;;;;4375158;32;20071;-74
2022/10/19 01:26:36;;;;;;;0.40;0.40;;;11.90;99.90;;;;;;4381581;32;20030;-74
2022/10/19 01:29:29;;;;;;;0.40;0.40;;;11.90;99.90;;;;;;4375976;32;20082;-74
2022/10/19 01:32:10;;;;;;;0.50;0.50;;;11.90;99.90;;;;;;4387037;32;20111;-75
2022/10/19 01:34:45;;;;;;;0.57;0.57;;;11.70;99.90;;;;;;4362472;32;20095;-74
2022/10/19 01:37:26;;;;;;;0.40;0.40;;;11.80;99.90;;;;;;4377172;32;20079;-74
2022/10/19 01:40:20;;;;;;;0.30;0.30;;;11.70;99.90;;;;;;4384953;32;20062;-74
2022/10/19 01:42:58;;;;;;;0.37;0.37;;;11.80;99.90;;;;;;4375931;32;20094;-74
2022/10/19 01:45:30;;;;;;;0.52;0.52;;;11.90;99.90;;;;;;4386007;32;20067;-74
2022/10/19 01:48:05;;;;;;;0.50;0.50;;;11.80;99.90;;;;;;4382734;32;20050;-75
2022/10/19 01:50:39;;;;;;;2.67;0.65;;;11.90;99.90;;;;;;4385046;32;20058;-72
2022/10/19 01:53:07;;;;;;;3.85;1.25;;;11.80;99.90;;;;;;4388003;32;20188;-74
2022/10/19 01:55:35;;;;;;;0.30;0.30;;;11.90;99.90;;;;;;4385516;32;20073;-75
2022/10/19 01:58:05;;;;;;;0.30;0.30;;;11.80;99.90;;;;;;4385279;32;20052;-73
2022/10/19 02:00:33;;;;;;;0.40;0.40;;;11.80;99.90;;;;;;4386071;32;20098;-74
2022/10/19 02:03:00;;;;;;;0.32;0.32;;;11.70;99.90;;;;;;4375204;32;20629;-75
2022/10/19 02:05:29;;;;;;;1.52;0.65;;;11.70;99.90;;;;;;4364382;32;20110;-75
2022/10/19 02:07:59;;;;;;;2.40;0.98;;;11.70;99.90;;;;;;4380769;32;20043;-74
2022/10/19 02:10:26;;;;;;;0.40;0.40;;;11.60;99.90;;;;;;4386258;32;20182;-75
2022/10/19 02:12:53;;;;;;;0.30;0.30;;;11.70;99.90;;;;;;4387081;32;20873;-74
2022/10/19 02:15:22;;;;;;;0.45;0.45;;;11.60;99.90;;;;;;4387807;32;20062;-74
2022/10/19 02:17:55;;;;;;;0.55;0.55;;;11.60;99.90;;;;;;4384662;32;20090;-72
2022/10/19 02:20:21;;;;;;;2.65;0.65;;;11.60;99.90;;;;;;4385323;32;20062;-74
2022/10/19 02:22:46;;;;;;;0.30;0.30;;;11.70;99.90;;;;;;4385013;32;20075;-75
2022/10/19 02:25:12;;;;;;;0.70;0.70;;;11.70;99.90;;;;;;4384670;32;20273;-72
2022/10/19 02:27:40;;;;;;;0.55;0.55;;;11.80;99.90;;;;;;4383553;32;20211;-74
2022/10/19 02:30:08;;;;;;;0.30;0.30;;;11.80;99.90;;;;;;4385700;32;20087;-73
2022/10/19 02:32:33;;;;;;;0.50;0.50;;;11.70;99.90;;;;;;4380036;32;20351;-74
2022/10/19 02:34:59;;;;;;;0.30;0.30;;;11.70;99.90;;;;;;4363898;32;20408;-73
2022/10/19 02:37:24;;;;;;;0.80;0.62;;;11.70;99.90;;;;;;4380454;32;20098;-73
2022/10/19 02:39:50;;;;;;;0.37;0.37;;;11.70;99.90;;;;;;4387551;32;20074;-71
2022/10/19 02:42:21;;;;;;;17.42;0.60;;;11.60;99.90;;;;;;4386052;32;20099;-74
2022/10/19 02:44:50;;;;;;;0.30;0.30;;;11.60;99.90;;;;;;4387325;32;20131;-73
2022/10/19 02:47:24;;;;;;;0.30;0.30;;;11.60;99.90;;;;;;4387636;32;20075;-72
2022/10/19 02:49:50;;;;;;;3.92;0.35;;;11.50;99.90;;;;;;4387805;32;20075;-71
2022/10/19 02:52:16;;;;;;;0.75;0.70;;;11.60;99.90;;;;;;4388622;32;20086;-74
2022/10/19 02:54:43;;;;;;;0.30;0.30;;;11.60;99.90;;;;;;4390857;32;20099;-73
2022/10/19 02:57:24;;;;;;;1.08;0.98;;;11.60;99.90;;;;;;4390203;32;20106;-74
2022/10/19 02:59:51;;;;;;;0.43;0.43;;;11.60;99.90;;;;;;4388349;32;20078;-73
2022/10/19 03:02:18;;;;;;;0.30;0.30;;;11.60;99.90;;;;;;4383359;32;20142;-73
2022/10/19 03:04:44;;;;;;;0.30;0.30;;;11.60;99.90;;;;;;4361229;32;20301;-73
2022/10/19 03:07:13;;;;;;;0.62;0.62;;;11.60;99.90;;;;;;4378161;32;20071;-74
2022/10/19 03:09:39;;;;;;;2.17;0.40;;;11.70;99.90;;;;;;4386071;32;20071;-73
2022/10/19 03:12:05;;;;;;;22.77;0.60;;;11.70;99.90;;;;;;4386729;32;20066;-73
2022/10/19 03:14:30;;;;;;;0.25;0.25;;;11.80;99.90;;;;;;4385619;32;20095;-74
2022/10/19 03:16:56;;;;;;;0.30;0.30;;;11.70;99.90;;;;;;4385655;32;20098;-71
2022/10/19 03:19:21;;;;;;;0.40;0.40;;;11.70;99.90;;;;;;4387218;32;20506;-74
2022/10/19 03:21:47;;;;;;;0.20;0.20;;;11.70;99.90;;;;;;4387023;32;20115;-72
2022/10/19 03:24:12;;;;;;;0.47;0.47;;;11.70;99.90;;;;;;4388596;32;20043;-74
2022/10/19 03:26:38;;;;;;;1.62;0.88;;;11.70;99.90;;;;;;4388812;32;20078;-75
2022/10/19 03:29:03;;;;;;;1.67;1.45;;;11.70;99.90;;;;;;4387447;32;20087;-73
2022/10/19 03:31:29;;;;;;;0.40;0.40;;;11.70;99.90;;;;;;4387784;32;20125;-73
2022/10/19 03:33:54;;;;;;;0.30;0.30;;;11.70;99.90;;;;;;4368486;32;20138;-74
2022/10/19 03:36:23;;;;;;;0.60;0.60;;;11.70;99.90;;;;;;4372515;32;20134;-73
2022/10/19 03:38:51;;;;;;;0.40;0.40;;;11.80;99.90;;;;;;4386847;32;20160;-73
2022/10/19 03:41:18;;;;;;;12.50;0.43;;;11.70;99.90;;;;;;4386990;32;20094;-73
2022/10/19 03:43:43;;;;;;;0.30;0.30;;;11.70;99.90;;;;;;4387794;32;20071;-74
2022/10/19 03:46:09;;;;;;;0.30;0.30;;;11.80;99.90;;;;;;4387404;32;20088;-74
2022/10/19 03:48:35;;;;;;;0.45;0.45;;;11.80;99.90;;;;;;4387174;32;20098;-73
2022/10/19 03:51:03;;;;;;;0.30;0.30;;;11.80;99.90;;;;;;4387936;32;20105;-74
2022/10/19 03:53:30;;;;;;;0.30;0.30;;;11.80;99.90;;;;;;4387883;32;20075;-73
2022/10/19 03:56:05;;;;;;;0.30;0.30;;;11.80;99.90;;;;;;4388106;32;20066;-74
2022/10/19 03:58:33;;;;;;;0.40;0.40;;;11.70;99.90;;;;;;4384727;32;20128;-73
2022/10/19 04:00:58;;;;;;;0.40;0.40;;;11.70;99.90;;;;;;4384705;32;20070;-74
2022/10/19 04:03:24;;;;;;;0.30;0.30;;;11.80;99.90;;;;;;4371190;32;20099;-75
2022/10/19 04:05:51;;;;;;;0.30;0.30;;;11.70;99.90;;;;;;4369639;32;20079;-74
2022/10/19 04:08:16;;;;;;;4.72;1.27;;;11.70;99.90;;;;;;4385474;32;20043;-74
2022/10/19 04:10:42;;;;;;;0.30;0.30;;;11.70;99.90;;;;;;4388139;32;20130;-72
2022/10/19 04:13:07;;;;;;;0.20;0.20;;;11.80;99.90;;;;;;4386881;32;20095;-73
2022/10/19 04:15:33;;;;;;;0.30;0.30;;;11.70;99.90;;;;;;4387737;32;20122;-72
2022/10/19 04:17:58;;;;;;;7.78;0.43;;;11.70;99.90;;;;;;4385797;32;20914;-75
2022/10/19 04:20:24;;;;;;;0.30;0.30;;;11.70;99.90;;;;;;4387036;32;20201;-76
2022/10/19 04:22:52;;;;;;;0.20;0.20;;;11.70;99.90;;;;;;4359370;32;20079;-76
2022/10/19 04:25:17;;;;;;;0.57;0.57;;;11.70;99.90;;;;;;4362839;32;20446;-76
2022/10/19 04:27:43;;;;;;;0.25;0.25;;;11.70;99.90;;;;;;4352996;32;20284;-76
2022/10/19 04:30:09;;;;;;;0.30;0.30;;;11.80;99.90;;;;;;4355352;32;20055;-76
2022/10/19 04:32:34;;;;;;;1.10;0.60;;;11.80;99.90;;;;;;4349396;32;20074;-73
2022/10/19 04:35:00;;;;;;;0.40;0.40;;;11.80;99.90;;;;;;4330235;32;20501;-74
2022/10/19 04:37:25;;;;;;;0.32;0.32;;;11.80;99.90;;;;;;4366397;32;20204;-73
2022/10/19 04:42:17;;;;;;;0.30;0.30;;;11.70;99.90;;;;;;4384583;32;20046;-74
2022/10/19 04:44:42;;;;;;;3.65;1.08;;;11.70;99.90;;;;;;4385556;32;20066;-74
2022/10/19 04:47:07;;;;;;;0.30;0.30;;;11.80;99.90;;;;;;4383416;32;20712;-74
2022/10/19 04:49:33;;;;;;;0.40;0.40;;;11.80;99.90;;;;;;4383185;32;20091;-73
2022/10/19 04:51:58;;;;;;;0.30;0.30;;;11.70;99.90;;;;;;4375714;32;21370;-74
2022/10/19 04:54:24;;;;;;;0.30;0.30;;;11.70;99.90;;;;;;4347219;32;20395;-74
2022/10/19 04:56:49;;;;;;;0.20;0.20;;;11.70;99.90;;;;;;4363408;32;20155;-74
2022/10/19 04:59:15;;;;;;;1.75;0.82;;;11.70;99.90;;;;;;4385389;32;20078;-74
2022/10/19 05:01:40;;;;;;;8.48;0.62;;;11.80;99.90;;;;;;4373428;32;20119;-74
2022/10/19 05:04:06;;;;;;;0.35;0.35;;;11.80;99.90;;;;;;4348659;32;20098;-74
2022/10/19 05:06:32;;;;;;;12.55;0.60;;;11.70;99.90;;;;;;4349738;32;20210;-74
2022/10/19 05:08:58;;;;;;;0.30;0.30;;;11.80;99.90;;;;;;4347672;32;20086;-74
2022/10/19 05:11:24;;;;;;;0.50;0.50;;;11.80;99.90;;;;;;4349037;32;20494;-74
2022/10/19 05:13:50;;;;;;;0.62;0.62;;;11.70;99.90;;;;;;4342673;32;20075;-74
2022/10/19 05:16:18;;;;;;;0.40;0.40;;;11.80;99.90;;;;;;4345288;32;20079;-74
2022/10/19 05:18:49;;;;;;;0.20;0.20;;;11.70;99.90;;;;;;4311164;32;20258;-75
2022/10/19 05:21:14;;;;;;;0.30;0.30;;;11.70;99.90;;;;;;4324867;32;20369;-74
2022/10/19 05:23:41;;;;;;;0.30;0.30;;;11.70;99.90;;;;;;4293364;32;20320;-74
2022/10/19 05:26:09;;;;;;;0.40;0.40;;;11.70;99.90;;;;;;4299257;32;20062;-73
2022/10/19 05:28:35;;;;;;;10.77;1.48;;;11.60;99.90;;;;;;4320375;32;20090;-75
2022/10/19 05:31:07;;;;;;;0.25;0.25;;;11.70;99.90;;;;;;4295232;32;20433;-76
2022/10/19 05:33:32;;;;;;;0.28;0.28;;;11.70;99.90;;;;;;4322744;32;20266;-75
2022/10/19 05:35:58;;;;;;;0.20;0.20;;;11.60;99.90;;;;;;4332917;32;20082;-76
2022/10/19 05:38:23;;;;;;;0.20;0.20;;;11.60;99.90;;;;;;4339691;32;20458;-76
2022/10/19 05:40:49;;;;;;;20.52;0.50;;;11.60;99.90;;;;;;4338942;32;20151;-75
2022/10/19 05:43:14;;;;;;;0.50;0.50;;;11.70;99.90;;;;;;4328696;32;20410;-71
2022/10/19 05:45:40;;;;;;;0.20;0.20;;;11.70;99.90;;;;;;4338673;32;20107;-72
2022/10/19 05:48:06;;;;;;;0.30;0.30;;;11.70;99.90;;;;;;4341812;32;20106;-76
2022/10/19 05:50:31;;;;;;;0.57;0.57;;;11.70;99.90;;;;;;4325486;32;20212;-75
2022/10/19 05:52:57;;;;;;;0.75;0.52;;;11.70;99.90;;;;;;4323770;32;20462;-75
2022/10/19 05:55:22;;;;;;;0.30;0.30;;;11.60;99.90;;;;;;4326717;32;20098;-76
2022/10/19 05:57:48;;;;;;;0.30;0.30;;;11.60;99.90;;;;;;4325423;32;20610;-75
2022/10/19 06:00:13;;;;;;;0.30;0.30;;;11.60;99.90;;;;;;4308072;32;20768;-75
2022/10/19 06:02:39;;;;;;;0.30;0.30;;;11.60;99.90;;;;;;4297196;32;20219;-75
2022/10/19 06:05:05;;;;;;;0.70;0.70;;;11.60;99.90;;;;;;4309554;32;20107;-75
2022/10/19 06:07:31;;;;;;;0.50;0.50;;;11.60;99.90;;;;;;4320764;32;20254;-77
2022/10/19 06:09:56;;;;;;;0.30;0.30;;;11.70;99.90;;;;;;4326961;32;20102;-77
2022/10/19 06:12:22;;;;;;;0.20;0.20;;;11.60;99.90;;;;;;4322938;32;20174;-77
2022/10/19 06:14:49;;;;;;;0.30;0.30;;;11.70;99.90;;;;;;4332141;32;20752;-77
2022/10/19 06:17:15;;;;;;;3.25;1.83;;;11.70;99.90;;;;;;4335493;32;20697;-77
2022/10/19 06:19:40;;;;;;;0.70;0.70;;;11.70;99.90;;;;;;4337934;32;20098;-75
2022/10/19 06:22:06;;;;;;;0.43;0.43;;;11.70;99.90;;;;;;4330964;32;20350;-77
2022/10/19 06:24:31;;;;;;;0.30;0.30;;;11.80;99.90;;;;;;4328894;32;20098;-77
2022/10/19 06:26:57;;;;;;;0.30;0.30;;;11.70;99.90;;;;;;4333415;32;20091;-76
2022/10/19 06:29:22;;;;;;;0.40;0.40;;;11.70;99.90;;;;;;4325758;32;20221;-74
2022/10/19 06:31:48;;;;;;;0.20;0.20;;;11.70;99.90;;;;;;4329402;32;21144;-76
2022/10/19 06:34:13;;;;;;;0.30;0.30;;;11.70;99.90;;;;;;4315549;32;20111;-75
2022/10/19 06:36:39;;;;;;;6.32;1.48;;;11.80;99.90;;;;;;4337413;32;20461;-75
2022/10/19 06:39:04;;;;;;;1.73;0.85;;;11.80;99.90;;;;;;4334028;32;20123;-75
2022/10/19 06:41:31;;;;;;;2.28;0.75;;;11.90;99.90;;;;;;4332426;32;20139;-74
2022/10/19 06:43:57;;;;;;;0.60;0.60;;;11.90;99.90;;;;;;4336802;32;20257;-75
2022/10/19 06:46:26;;;;;;;0.30;0.30;;;11.90;99.90;;;;;;4337173;32;20106;-75
2022/10/19 06:48:55;;;;;;;0.40;0.40;;;11.80;99.90;;;;;;4331992;32;20106;-75
2022/10/19 06:51:21;;;;;;;0.40;0.40;;;11.80;99.90;;;;;;4325522;32;21649;-75
2022/10/19 06:53:47;;;;;;;0.30;0.30;;;11.70;99.90;;;;;;4332787;32;20842;-74
2022/10/19 06:56:13;;;;;;;1.08;0.62;;;11.70;99.90;;;;;;4325288;32;20114;-76
2022/10/19 06:58:39;;;;;;;0.32;0.32;;;11.80;99.90;;;;;;4328201;32;20737;-75
2022/10/19 07:01:06;;;;;;;0.32;0.32;;;11.80;99.90;;;;;;4324651;32;20095;-75
2022/10/19 07:03:32;;;;;;;0.50;0.50;;;11.80;99.90;;;;;;4326627;32;20226;-74
2022/10/19 07:06:00;;;;;;;3.92;0.55;;;11.90;99.90;;;;;;4329533;32;20234;-76
2022/10/19 07:08:28;;;;;;;0.30;0.30;;;12.00;99.90;;;;;;4333010;32;20094;-76
2022/10/19 07:10:56;;;;;;;0.32;0.32;;;11.90;99.90;;;;;;4346216;32;20123;-73
2022/10/19 07:13:22;;;;;;;0.30;0.30;;;11.90;99.90;;;;;;4327083;32;20108;-74
2022/10/19 07:15:47;;;;;;;0.40;0.40;;;11.90;99.90;;;;;;4335277;32;20255;-76
2022/10/19 07:18:13;;;;;;;0.30;0.30;;;11.90;99.90;;;;;;4335778;32;20432;-74
2022/10/19 07:20:39;;;;;;;0.30;0.30;;;12.00;99.90;;;;;;4337381;32;20419;-74
2022/10/19 07:23:04;;;;;;;23.15;0.93;;;12.00;99.90;;;;;;4333486;32;20857;-77
2022/10/19 07:25:30;;;;;;;0.82;0.82;;;12.00;99.90;;;;;;4337570;32;20101;-78
2022/10/19 07:27:56;;;;;;;0.30;0.30;;;12.00;99.90;;;;;;4336101;32;20273;-77
2022/10/19 07:30:22;;;;;;;1.15;0.75;;;12.00;99.90;;;;;;4329006;32;20119;-76
2022/10/19 07:32:48;;;;;;;0.30;0.30;;;12.00;99.90;;;;;;4319796;32;20156;-77
2022/10/19 07:35:13;;;;;;;0.30;0.30;;;12.00;99.90;;;;;;4344821;32;20122;-80
2022/10/19 07:37:40;;;;;;;0.40;0.40;;;12.10;99.90;;;;;;4349504;32;20059;-79
2022/10/19 07:40:06;;;;;;;0.30;0.30;;;12.10;99.90;;;;;;4379934;27;20089;-76
2022/10/19 07:42:31;;;;;;;1.45;0.88;;;12.10;99.90;;;;;;4386769;27;20106;-70
2022/10/19 07:44:57;;;;;;;0.40;0.40;;;12.10;99.90;;;;;;4359928;32;20236;-69
2022/10/19 07:47:23;;;;;;;0.30;0.30;;;12.20;99.90;;;;;;4439046;27;20561;-71
2022/10/19 07:52:17;;;;;;;2.17;0.52;;;12.20;99.90;;;;;;4345806;32;20177;-77
2022/10/19 07:54:42;;;;;;;0.40;0.40;;;12.20;99.90;;;;;;4351092;32;20098;-76
2022/10/19 07:57:10;;;;;;;0.37;0.37;;;12.30;99.90;;;;;;4357791;32;20158;-76
2022/10/19 07:59:35;;;;;;;0.20;0.20;;;12.30;99.90;;;;;;4355016;32;21018;-76
2022/10/19 08:02:03;;;;;;;0.20;0.20;;;12.40;99.90;;;;;;4349166;32;20098;-76
2022/10/19 08:04:29;;;;;;;0.30;0.30;;;12.50;99.90;;;;;;4346446;32;20392;-76
2022/10/19 08:06:54;;;;;;;0.20;0.20;;;12.60;99.90;;;;;;4343564;32;20082;-75
2022/10/19 08:09:21;;;;;;;0.30;0.30;;;12.60;99.90;;;;;;4359819;32;20110;-76
2022/10/19 08:11:46;;;;;;;0.62;0.50;;;12.60;99.90;;;;;;4369039;32;20167;-76
2022/10/19 08:14:11;;;;;;;0.60;0.60;;;12.70;99.90;;;;;;4377305;27;20149;-67
2022/10/19 08:16:40;;;;;;;1.35;1.12;;;12.80;99.90;;;;;;4369803;32;20098;-67
2022/10/19 08:19:08;;;;;;;0.50;0.50;;;12.70;99.90;;;;;;4339844;32;20692;-68
2022/10/19 08:21:35;;;;;;;0.20;0.20;;;12.70;99.90;;;;;;4343422;32;20242;-70
2022/10/19 08:24:00;;;;;;;0.30;0.30;;;12.70;99.90;;;;;;4355969;32;20445;-68
2022/10/19 08:26:29;;;;;;;0.40;0.40;;;12.80;99.90;;;;;;4359721;32;20122;-71
2022/10/19 08:29:00;;;;;;;0.28;0.28;;;12.70;99.90;;;;;;4508442;27;20236;-77
2022/10/19 08:31:26;;;;;;;;;;;12.70;99.90;;;;;;4358082;32;20225;-77
2022/10/19 08:33:52;;;;;;;0.37;0.37;;;12.60;99.90;;;;;;4339581;32;228702;-77
2022/10/19 08:36:18;;;;;;;6.20;0.55;;;12.60;99.90;;;;;;4362521;32;20071;-78
2022/10/19 08:38:47;;;;;;;2.75;1.55;;;12.50;99.90;;;;;;4362027;32;20077;-76
2022/10/19 08:41:25;;;;;;;0.47;0.47;;;12.60;99.90;;;;;;4365841;32;20102;-77
2022/10/19 08:44:06;;;;;;;0.88;0.85;;;12.70;99.90;;;;;;4354946;32;20529;-77
2022/10/19 08:46:46;;;;;;;0.30;0.30;;;12.70;99.90;;;;;;4359018;32;20565;-78
2022/10/19 08:49:18;;;;;;;0.30;0.30;;;12.70;99.90;;;;;;4351310;32;20584;-77
2022/10/19 08:51:52;;;;;;;0.30;0.30;;;12.70;99.90;;;;;;4356117;32;20197;-78
2022/10/19 08:54:18;;;;;;;0.30;0.30;;;12.90;99.90;;;;;;4349034;32;20098;-77
2022/10/19 08:56:53;;;;;;;0.70;0.70;;;12.90;99.90;;;;;;4343138;32;20097;-78
2022/10/19 08:59:49;;;;;;;0.43;0.22;;;12.90;99.90;;;;;;4350743;32;20075;-77
2022/10/19 09:02:30;;;;;;;0.40;0.40;;;13.00;99.90;;;;;;4325647;32;20771;-78
2022/10/19 09:05:03;;;;;;;0.30;0.30;;;13.10;99.90;;;;;;4341222;32;20343;-78
2022/10/19 09:07:33;;;;;;;0.40;0.40;;;13.10;99.90;;;;;;4354395;32;20272;-78
2022/10/19 09:10:16;;;;;;;0.35;0.35;;;13.20;99.90;;;;;;4351655;32;20087;-78
2022/10/19 09:12:52;;;;;;;0.30;0.30;;;13.30;99.90;;;;;;4355883;32;20086;-78
2022/10/19 09:15:22;;;;;;;0.28;0.28;;;13.30;99.90;;;;;;4354666;32;20123;-78
2022/10/19 09:17:48;;;;;;;0.30;0.30;;;13.40;99.90;;;;;;4354064;32;20446;-77
2022/10/19 09:20:30;;;;;;;0.30;0.30;;;13.60;99.90;;;;;;4347681;32;20176;-77
2022/10/19 09:23:04;;;;;;;0.30;0.30;;;13.80;99.90;;;;;;4319723;32;20623;-78
2022/10/19 09:25:33;;;;;;;0.40;0.40;;;13.80;99.90;;;;;;4331417;32;20786;-77
2022/10/19 09:28:09;;;;;;;0.30;0.30;;;13.90;99.90;;;;;;4349845;32;20118;-77
2022/10/19 09:30:38;;;;;;;0.62;0.62;;;13.90;99.90;;;;;;4338939;32;20086;-78
2022/10/19 09:33:10;;;;;;;1.15;1.05;;;13.80;99.90;;;;;;4339111;32;20196;-79
2022/10/19 09:35:41;;;;;;;1.48;0.68;;;13.90;99.90;;;;;;4344647;32;20229;-79
2022/10/19 09:38:11;;;;;;;0.50;0.50;;;14.00;99.90;;;;;;4342559;32;20463;-79
2022/10/19 09:40:36;;;;;;;0.30;0.30;;;14.10;99.90;;;;;;4355074;32;20253;-80
2022/10/19 09:43:18;;;;;;;0.35;0.35;;;14.20;99.90;;;;;;4350219;32;20320;-81
2022/10/19 09:45:52;;;;;;;0.35;0.35;;;14.30;99.90;;;;;;4355113;32;20394;-79
2022/10/19 09:48:46;;;;;;;0.25;0.25;;;14.10;99.90;;;;;;4348311;32;20162;-79
2022/10/19 09:51:13;;;;;;;0.30;0.30;;;14.20;99.90;;;;;;4328767;32;20090;-78
2022/10/19 09:53:46;;;;;;;0.50;0.50;;;14.30;99.90;;;;;;4332071;32;20103;-79
2022/10/19 09:56:19;;;;;;;0.52;0.40;;;14.20;99.90;;;;;;4341563;32;21096;-78
2022/10/19 09:58:50;;;;;;;1.08;0.62;;;14.40;99.90;;;;;;4340194;32;20495;-78
2022/10/19 10:01:28;;;;;;;;;;;14.30;99.90;;;;;;4341379;32;20482;-78
2022/10/19 10:04:04;;;;;;;1.17;0.93;;;14.30;99.90;;;;;;4330228;32;20001;-78
2022/10/19 10:06:32;;;;;;;0.30;0.30;;;14.10;99.90;;;;;;4350532;32;20586;-79
2022/10/19 10:08:58;;;;;;;0.30;0.30;;;14.10;99.90;;;;;;4338498;32;20170;-77
2022/10/19 10:11:28;;;;;;;0.40;0.40;;;14.10;99.90;;;;;;4333889;32;20089;-75
2022/10/19 10:13:56;;;;;;;;;;;14.10;99.90;;;;;;4323512;32;20131;-76
2022/10/19 10:16:28;;;;;;;0.30;0.30;;;14.00;99.90;;;;;;4325816;32;20116;-77
2022/10/19 10:18:57;;;;;;;0.30;0.30;;;14.00;99.90;;;;;;4318352;32;20468;-76
2022/10/19 10:21:31;;;;;;;7.75;2.08;;;14.10;99.90;;;;;;4315186;32;21537;-76
2022/10/19 10:24:02;;;;;;;0.50;0.50;;;14.20;99.90;;;;;;4322843;32;20130;-76
2022/10/19 10:26:27;;;;;;;0.40;0.40;;;14.20;99.90;;;;;;4320716;32;20097;-76
2022/10/19 10:28:53;;;;;;;1.75;0.80;;;14.30;99.90;;;;;;4337073;32;20531;-75
2022/10/19 10:31:24;;;;;;;1.00;0.60;;;14.20;99.90;;;;;;4321778;32;20976;-76
2022/10/19 10:33:56;;;;;;;0.60;0.60;;;14.30;99.90;;;;;;4320739;32;20094;-75
2022/10/19 10:36:24;;;;;;;2.25;0.50;;;14.30;99.90;;;;;;4331257;32;21826;-76
2022/10/19 10:38:52;;;;;;;0.30;0.30;;;14.30;99.90;;;;;;4337594;32;21159;-79
2022/10/19 10:41:22;;;;;;;15.13;0.43;;;14.30;99.90;;;;;;4351743;32;20379;-77
2022/10/19 10:43:54;;;;;;;0.35;0.35;;;14.40;99.90;;;;;;4350490;32;20142;-76
2022/10/19 10:46:24;;;;;;;0.60;0.60;;;14.50;99.90;;;;;;4348837;32;20397;-76
2022/10/19 10:48:58;;;;;;;0.30;0.30;;;14.40;99.90;;;;;;4331602;32;20202;-76
2022/10/19 10:51:37;;;;;;;0.75;0.43;;;14.40;99.90;;;;;;4335868;32;20434;-76
2022/10/19 10:54:30;;;;;;;0.32;0.32;;;14.40;99.90;;;;;;4318940;32;20110;-77
2022/10/19 10:57:14;;;;;;;0.30;0.30;;;14.50;99.90;;;;;;4303853;32;20131;-77
2022/10/19 11:00:06;;;;;;;0.30;0.30;;;14.80;99.90;;;;;;4328920;32;20131;-77
2022/10/19 11:02:38;;;;;;;0.35;0.35;;;15.40;99.90;;;;;;4306008;32;20326;-75
2022/10/19 11:05:08;;;;;;;0.40;0.40;;;15.90;99.90;;;;;;4328925;32;20091;-76
2022/10/19 11:07:35;;;;;;;0.50;0.50;;;15.70;99.90;;;;;;4330322;32;20179;-77
2022/10/19 11:10:10;;;;;;;0.40;0.40;;;15.40;99.90;;;;;;4329204;32;21285;-76
2022/10/19 11:12:40;;;;;;;0.50;0.50;;;15.10;99.90;;;;;;4328366;32;20712;-76
2022/10/19 11:15:19;;;;;;;0.40;0.40;;;14.90;99.90;;;;;;4323725;32;20542;-76
2022/10/19 11:17:54;;;;;;;0.30;0.30;;;14.80;99.90;;;;;;4330649;32;20231;-75
2022/10/19 11:20:22;;;;;;;0.30;0.30;;;15.00;99.90;;;;;;4330185;32;20087;-78
2022/10/19 11:23:00;;;;;;;0.30;0.30;;;15.90;99.90;;;;;;4315050;32;20094;-75
2022/10/19 11:25:44;;;;;;;0.40;0.40;;;16.50;99.90;;;;;;4326485;32;20161;-76
2022/10/19 11:28:35;;;;;;;0.30;0.30;;;17.20;99.90;;;;;;4328406;32;20597;-77
2022/10/19 11:31:19;;;;;;;0.40;0.40;;;17.70;99.90;;;;;;4317630;32;20106;-79
2022/10/19 11:34:27;;;;;;;1.85;1.17;;;17.70;99.90;;;;;;4341728;32;20142;-80
2022/10/19 11:37:04;;;;;;;0.40;0.40;;;17.30;99.90;;;;;;4335769;32;20270;-80
2022/10/19 11:40:00;;;;;;;0.30;0.30;;;16.80;99.90;;;;;;4350137;32;20098;-80
2022/10/19 11:42:48;;;;;;;1.42;0.37;;;16.50;99.90;;;;;;4349270;32;20086;-78
2022/10/19 11:45:40;;;;;;;0.30;0.30;;;16.00;99.90;;;;;;4338682;32;20109;-78
2022/10/19 11:48:36;;;;;;;1.17;0.52;;;15.80;99.90;;;;;;4329708;32;20106;-78
2022/10/19 11:51:25;;;;;;;0.32;0.32;;;15.50;99.90;;;;;;4326511;32;20106;-78
2022/10/19 11:54:06;;;;;;;0.40;0.40;;;15.80;99.90;;;;;;4328473;32;20582;-78
2022/10/19 11:56:41;;;;;;;1.45;0.50;;;15.90;99.90;;;;;;4353970;32;20980;-79
2022/10/19 11:59:22;;;;;;;0.40;0.40;;;16.30;99.90;;;;;;4351586;32;20372;-78
2022/10/19 12:02:03;;;;;;;0.30;0.30;;;17.00;99.90;;;;;;4358107;32;20782;-79
2022/10/19 12:04:53;;;;;;;0.30;0.30;;;17.40;99.90;;;;;;4352216;32;20380;-78
2022/10/19 12:07:39;;;;;;;0.30;0.30;;;18.10;99.90;;;;;;4334759;32;20102;-79
2022/10/19 12:10:22;;;;;;;0.30;0.30;;;18.70;99.90;;;;;;4335992;32;20279;-78
2022/10/19 12:12:52;;;;;;;0.30;0.30;;;19.20;99.90;;;;;;4356036;32;20109;-78
2022/10/19 12:15:25;;;;;;;0.30;0.30;;;19.80;99.90;;;;;;4356846;32;20109;-79
2022/10/19 12:17:53;;;;;;;1.25;1.00;;;20.10;99.90;;;;;;4352352;32;20321;-78
2022/10/19 12:20:44;;;;;;;0.98;0.55;;;19.60;99.90;;;;;;4339497;32;20611;-80
2022/10/19 12:23:25;;;;;;;0.30;0.30;;;18.60;99.90;;;;;;4323676;32;21462;-78
2022/10/19 12:25:51;;;;;;;;;;;17.50;99.90;;;;;;4338099;32;20106;-78
2022/10/19 12:28:23;;;;;;;0.30;0.30;;;17.10;99.90;;;;;;4346437;32;19973;-78
2022/10/19 12:30:50;;;;;;;0.50;0.50;;;16.70;99.90;;;;;;4343050;32;20103;-79
2022/10/19 12:33:42;;;;;;;0.45;0.45;;;16.40;99.90;;;;;;4331038;32;20219;-79
2022/10/19 12:36:21;;;;;;;7.43;1.85;;;16.30;99.90;;;;;;4305529;32;20245;-79
2022/10/19 12:39:15;;;;;;;0.40;0.40;;;16.30;99.90;;;;;;4339992;32;20123;-79
2022/10/19 12:42:02;;;;;;;0.57;0.57;;;16.50;99.90;;;;;;4331388;32;20454;-78
2022/10/19 12:44:49;;;;;;;0.30;0.30;;;16.50;99.90;;;;;;4330331;32;20106;-78
2022/10/19 12:47:19;;;;;;;0.30;0.30;;;17.50;99.90;;;;;;4352442;32;20094;-78
2022/10/19 12:49:48;;;;;;;0.35;0.35;;;17.90;99.90;;;;;;4338640;32;20322;-79
2022/10/19 12:52:32;;;;;;;0.65;0.50;;;18.30;99.90;;;;;;4329620;32;20598;-79
2022/10/19 12:55:10;;;;;;;2.03;1.20;;;18.50;99.90;;;;;;4340394;32;20141;-79
2022/10/19 12:57:37;;;;;;;0.30;0.30;;;18.40;99.90;;;;;;4335115;32;20126;-79
2022/10/19 13:00:17;;;;;;;0.30;0.30;;;18.00;99.90;;;;;;4341257;32;20105;-78
2022/10/19 13:02:45;;;;;;;0.40;0.40;;;17.40;99.90;;;;;;4337924;32;20225;-79
2022/10/19 13:05:20;;;;;;;0.57;0.57;;;16.80;99.90;;;;;;4333571;32;20082;-78
2022/10/19 13:07:49;;;;;;;0.40;0.40;;;16.40;99.90;;;;;;4333153;32;20124;-78
2022/10/19 13:10:21;;;;;;;0.35;0.35;;;16.00;99.90;;;;;;4349825;32;20735;-80